メインページ
METAR-TAF:

METAR-TAF

空港 :

Rafha, サウジアラビア

緯度: 29-37N, 経度: 043-29E, 海抜: 449m

現時点の気象観測

当レポートは24分前の23:00(UTC)に作成
東/南東の風 6kt
気温 14°C
湿度 47%
気圧 1025 hPa
視程10km以上
1,500メートル以下は雲なし、積乱雲なし

METAR: OERF 152300Z 11006KT CAVOK 14/03 Q1025

時間: 02:24 (23:24 UTC)

予報

当レポートは12時間24分前の11:00(UTC)に作成
予報は15日の 12時(UTC)から 16日の 18時(UTC)まで有効
東/北東の風 6kt、最大16ktの突風を伴う
視程: 7000m
高度4000ftの雲はほとんどない
15日の 18時(UTC)から 15日の 20時(UTC)まで徐々に
変向風 3kt
15日の 20時(UTC)から 16日の 06時(UTC)まで一時的に
視程: 4000m

TAF: OERF 151100Z 1512/1618 06006G16KT 7000 FEW040 BECMG 1518/1520 VRB03KT TEMPO 1520/1606 4000 BR

4,000以上の空港の気象観測と天気予報(METAR報とTAF報)

利用可能な観測所は地図上に黄色い丸と赤い丸で示す。

丸の上にカーソルを重ねると観測所名を参照できる。

次にクリックすると気象観測と天気予報を参照できる。

マップの切り替え:黒色「×」印の緑ボタンをクリックして拡大、「-」印の緑ボタンをクリックして縮小、緑色の三角印をクリックして隣りの地図に切り替え


METAR-TAF: